createdAt,value
2022-09-21T11:21:53.932Z,99816.50
2022-09-21T11:24:26.343Z,99812.72
2022-09-21T11:26:55.719Z,99806.50
2022-09-21T11:32:13.981Z,99801.53
2022-09-21T11:35:18.624Z,99805.94
2022-09-21T11:37:58.457Z,99821.28
2022-09-21T11:40:50.775Z,99821.66
2022-09-21T11:43:25.682Z,99800.38
2022-09-21T11:46:00.328Z,99810.34
2022-09-21T11:48:48.291Z,99829.53
2022-09-21T11:51:25.284Z,99816.13
2022-09-21T11:54:08.461Z,99819.75
2022-09-21T11:56:41.124Z,99817.94
2022-09-21T11:59:21.365Z,99810.84
2022-09-21T12:01:57.958Z,99821.09
2022-09-21T12:04:34.137Z,99825.03
2022-09-21T12:07:13.106Z,99831.50
2022-09-21T12:09:51.170Z,99835.94
2022-09-21T12:12:20.879Z,99825.31
2022-09-21T12:14:52.383Z,99833.44
2022-09-21T12:17:23.388Z,99818.22
2022-09-21T12:19:53.292Z,99816.75
2022-09-21T12:22:23.401Z,99816.78
2022-09-21T12:24:53.629Z,99810.53
2022-09-21T12:27:27.384Z,99803.06
2022-09-21T12:29:57.469Z,99805.13
2022-09-21T12:32:27.682Z,99800.97
2022-09-21T12:34:58.898Z,99777.66
2022-09-21T12:37:27.969Z,99794.72
2022-09-21T12:40:00.401Z,99794.72
2022-09-21T12:42:31.512Z,99789.25
2022-09-21T12:45:02.611Z,99781.25
2022-09-21T12:47:33.978Z,99788.19
2022-09-21T12:50:05.223Z,99787.78
2022-09-21T12:52:33.154Z,99785.31
2022-09-21T12:55:05.981Z,99786.56
2022-09-21T12:58:13.676Z,99791.06
2022-09-21T13:00:41.707Z,99794.47
2022-09-21T13:03:14.330Z,99803.03
2022-09-21T13:05:47.596Z,99798.88
2022-09-21T13:08:16.145Z,99803.41
2022-09-21T13:10:51.770Z,99814.47
2022-09-21T13:13:29.039Z,99824.03
2022-09-21T13:15:59.175Z,99828.03
2022-09-21T13:18:30.489Z,99824.63
2022-09-21T13:21:01.395Z,99834.75
2022-09-21T13:23:31.434Z,99821.97
2022-09-21T13:26:08.068Z,99813.75
2022-09-21T13:29:17.259Z,99818.25
2022-09-21T13:31:57.950Z,99822.88
2022-09-21T13:34:36.420Z,99826.56
2022-09-21T13:37:31.396Z,99838.66
2022-09-21T13:40:38.890Z,99836.91
2022-09-21T13:43:48.150Z,99841.88
2022-09-21T13:46:46.360Z,99844.03
2022-09-21T13:49:27.156Z,99835.56
2022-09-21T13:51:57.587Z,99846.16
2022-09-21T13:54:26.822Z,99836.66
2022-09-21T13:56:59.900Z,99839.53
2022-09-21T13:59:29.225Z,99843.13
2022-09-21T14:01:58.130Z,99838.97
2022-09-21T14:04:27.822Z,99844.59
2022-09-21T14:06:56.597Z,99838.09
2022-09-21T14:09:27.608Z,99843.91
2022-09-21T14:11:57.647Z,99832.44
2022-09-21T14:14:29.822Z,99825.16
2022-09-21T14:16:59.002Z,99822.63
2022-09-21T14:20:07.742Z,99816.41
2022-09-21T14:22:44.110Z,99820.84
2022-09-21T14:25:52.205Z,99817.59
2022-09-21T14:28:26.505Z,99805.38
2022-09-21T14:30:57.680Z,99806.22
2022-09-21T14:33:32.680Z,99807.06
2022-09-21T14:36:02.203Z,99808.81
2022-09-21T14:38:31.080Z,99804.25
2022-09-21T14:41:00.832Z,99805.88
2022-09-21T14:43:29.845Z,99803.78
2022-09-21T14:46:11.786Z,99794.78
2022-09-21T14:48:43.111Z,99794.56
2022-09-21T14:51:21.709Z,99787.84
2022-09-21T14:54:04.189Z,99791.13
2022-09-21T14:56:39.086Z,99801.50
2022-09-21T14:59:29.522Z,99798.16
2022-09-21T15:02:02.487Z,99796.28
2022-09-21T15:04:45.329Z,99796.06
2022-09-21T15:07:42.275Z,99810.44
2022-09-21T15:10:39.826Z,99801.94
2022-09-21T15:13:12.808Z,99803.56
2022-09-21T15:15:42.847Z,99805.69
2022-09-21T15:18:20.461Z,99812.75
2022-09-21T15:21:01.477Z,99810.66
2022-09-21T15:23:30.272Z,99822.09
2022-09-21T15:26:00.422Z,99831.66
2022-09-21T15:28:32.706Z,99827.28
2022-09-21T15:31:07.523Z,99827.91
2022-09-21T15:33:43.843Z,99834.38
2022-09-21T15:36:12.321Z,99852.63
2022-09-21T15:38:42.142Z,99867.09
2022-09-21T15:41:11.808Z,99873.19
2022-09-21T15:43:39.978Z,99874.00
2022-09-21T15:46:08.254Z,99883.03
2022-09-21T15:48:36.856Z,99879.19
2022-09-21T15:51:09.309Z,99887.09
2022-09-21T15:53:41.041Z,99907.47
2022-09-21T15:56:14.031Z,99911.59
2022-09-21T15:58:42.588Z,99921.38
2022-09-21T16:01:11.531Z,99927.81
2022-09-21T16:03:40.024Z,99926.72
2022-09-21T16:06:27.080Z,99931.22
2022-09-21T16:08:55.126Z,99929.91
2022-09-21T16:11:35.340Z,99932.09
2022-09-21T16:14:23.630Z,99928.75
2022-09-21T16:17:23.743Z,99932.22
2022-09-21T16:20:23.410Z,99932.59
2022-09-21T16:22:54.824Z,99929.88
2022-09-21T16:25:32.693Z,99925.38
2022-09-21T16:28:01.755Z,99933.72
2022-09-21T16:30:47.226Z,99935.88
2022-09-21T16:33:37.876Z,99931.00
2022-09-21T16:36:06.714Z,99930.53
2022-09-21T16:38:36.392Z,99937.13
2022-09-21T16:41:04.373Z,99927.84
2022-09-21T16:43:32.520Z,99929.47
2022-09-21T16:46:02.216Z,99928.72
2022-09-21T16:48:30.169Z,99927.13
2022-09-21T16:50:58.127Z,99938.06
2022-09-21T16:53:27.064Z,99927.53
2022-09-21T16:55:56.611Z,99925.66
2022-09-21T16:58:24.760Z,99937.53
2022-09-21T17:00:56.205Z,99933.56
2022-09-21T17:03:24.340Z,99933.63
2022-09-21T17:05:52.268Z,99932.84
2022-09-21T17:08:20.944Z,99931.41
2022-09-21T17:10:48.915Z,99935.47
2022-09-21T17:13:20.594Z,99924.59
2022-09-21T17:15:48.931Z,99931.31
2022-09-21T17:18:17.131Z,99938.75
2022-09-21T17:20:45.766Z,99941.66
2022-09-21T17:23:13.974Z,99941.66
2022-09-21T17:25:41.908Z,99939.16
2022-09-21T17:28:13.825Z,99931.91
2022-09-21T17:30:45.983Z,99938.31
2022-09-21T17:33:13.924Z,99946.53
2022-09-21T17:35:42.480Z,99953.09
2022-09-21T17:38:14.349Z,99943.09
2022-09-21T17:40:43.467Z,99962.59
2022-09-21T17:43:21.584Z,99958.56
2022-09-21T17:45:52.859Z,99962.59
2022-09-21T17:48:22.390Z,99967.63
2022-09-21T17:50:50.924Z,99968.34
2022-09-21T17:53:37.555Z,99963.63
2022-09-21T17:56:15.518Z,99970.22
2022-09-21T17:58:46.760Z,99964.31
2022-09-21T18:01:22.302Z,99963.97
2022-09-21T18:03:50.995Z,99976.91
2022-09-21T18:06:19.241Z,99974.03
2022-09-21T18:08:47.748Z,99969.84
2022-09-21T18:11:28.129Z,99977.75
2022-09-21T18:14:01.158Z,99977.41
2022-09-21T18:16:33.600Z,99979.91
2022-09-21T18:19:23.302Z,99978.72
2022-09-21T18:21:52.671Z,99980.41
2022-09-21T18:24:22.035Z,99986.41
2022-09-21T18:26:52.290Z,99987.25
2022-09-21T18:29:46.518Z,99990.09
2022-09-21T18:32:42.064Z,99987.25
2022-09-21T18:35:19.608Z,99981.41
2022-09-21T18:37:55.192Z,99994.81
2022-09-21T18:40:26.277Z,99998.50
2022-09-21T18:42:56.501Z,99999.47
2022-09-21T18:45:27.177Z,99992.06
2022-09-21T18:48:06.820Z,99981.03
2022-09-21T18:50:37.826Z,99988.00
2022-09-21T18:53:12.425Z,99991.38
2022-09-21T18:55:41.219Z,99989.34
2022-09-21T18:58:10.344Z,99993.66
2022-09-21T19:00:38.729Z,99993.16
2022-09-21T19:03:19.222Z,99988.19
2022-09-21T19:05:54.761Z,99981.41
2022-09-21T19:08:26.258Z,99984.53
2022-09-21T19:10:56.089Z,99983.97
2022-09-21T19:13:34.173Z,99975.38
2022-09-21T19:16:10.213Z,99973.53
2022-09-21T19:18:43.200Z,99971.50
2022-09-21T19:21:16.869Z,99952.06
2022-09-21T19:24:00.280Z,99967.75
2022-09-21T19:26:29.707Z,99953.66
2022-09-21T19:29:05.330Z,99966.69
2022-09-21T19:31:36.087Z,99964.19
2022-09-21T19:34:11.619Z,99970.75
2022-09-21T19:36:40.179Z,99971.84
2022-09-21T19:39:09.455Z,99974.72
2022-09-21T19:41:42.975Z,99964.69
2022-09-21T19:44:23.125Z,99971.75
2022-09-21T19:47:06.653Z,99974.09
2022-09-21T19:49:40.364Z,99974.84
2022-09-21T19:52:09.767Z,99970.97
2022-09-21T19:54:55.512Z,99975.72
2022-09-21T19:57:41.437Z,99977.09
2022-09-21T20:00:11.028Z,99975.75
2022-09-21T20:02:42.965Z,99973.59
2022-09-21T20:05:15.426Z,99970.13
2022-09-21T20:07:46.776Z,99978.19
2022-09-21T20:10:28.962Z,99974.16
2022-09-21T20:13:01.384Z,99979.44
2022-09-21T20:15:33.716Z,99982.63
2022-09-21T20:18:04.213Z,99986.34
2022-09-21T20:20:34.009Z,99993.22
2022-09-21T20:23:02.493Z,99986.34
2022-09-21T20:25:33.480Z,99983.66
2022-09-21T20:28:02.041Z,99980.81
2022-09-21T20:30:32.779Z,99979.69
2022-09-21T20:33:01.999Z,99974.81
2022-09-21T20:35:30.699Z,99974.34
2022-09-21T20:38:02.574Z,99971.31
2022-09-21T20:40:32.346Z,99984.47
2022-09-21T20:43:01.118Z,99981.09
2022-09-21T20:45:29.291Z,99957.44
2022-09-21T20:48:13.044Z,99983.66
2022-09-21T20:50:41.938Z,99991.16
2022-09-21T20:53:11.270Z,99990.50
2022-09-21T20:55:39.493Z,99990.03
2022-09-21T20:58:07.419Z,99993.88
2022-09-21T21:00:35.621Z,100001.28
2022-09-21T21:03:04.489Z,99988.84
2022-09-21T21:05:32.854Z,99986.81
2022-09-21T21:08:00.767Z,99986.81
2022-09-21T21:10:30.046Z,99977.94
2022-09-21T21:12:58.711Z,99978.47
2022-09-21T21:15:26.738Z,99984.84
2022-09-21T21:17:54.719Z,99984.16
2022-09-21T21:20:22.729Z,99986.53
2022-09-21T21:22:51.187Z,99984.66
2022-09-21T21:25:19.107Z,99982.28
2022-09-21T21:27:48.407Z,99975.38
2022-09-21T21:30:16.437Z,99971.34
2022-09-21T21:32:44.473Z,99970.22
2022-09-21T21:35:12.422Z,99971.53
2022-09-21T21:37:40.442Z,99970.84
2022-09-21T21:40:10.172Z,99973.19
2022-09-21T21:42:38.233Z,99980.41
2022-09-21T21:45:09.929Z,99974.34
2022-09-21T21:47:40.521Z,99974.97
2022-09-21T21:50:09.833Z,99981.53
2022-09-21T21:52:37.785Z,99984.88
2022-09-21T21:55:06.540Z,99980.69
2022-09-21T21:57:34.870Z,99975.66
2022-09-21T22:00:03.323Z,99975.44
2022-09-21T22:02:32.885Z,99972.72
2022-09-21T22:05:00.885Z,99969.50
2022-09-21T22:07:28.842Z,99966.66
2022-09-21T22:09:56.768Z,99963.78
2022-09-21T22:12:26.257Z,99967.13
2022-09-21T22:14:54.201Z,99961.69
2022-09-21T22:17:22.166Z,99955.28
2022-09-21T22:19:51.493Z,99966.06
2022-09-21T22:22:19.424Z,99961.91
2022-09-21T22:24:48.085Z,99958.03
2022-09-21T22:27:16.512Z,99962.94
2022-09-21T22:29:45.011Z,99962.78
2022-09-21T22:32:12.966Z,99970.22
2022-09-21T22:34:40.931Z,99966.88
2022-09-21T22:37:10.267Z,99969.41
2022-09-21T22:39:38.192Z,99969.44
2022-09-21T22:42:06.278Z,99966.56
2022-09-21T22:44:34.189Z,99973.28
2022-09-21T22:47:02.150Z,99965.44
2022-09-21T22:49:30.187Z,99973.97
2022-09-21T22:51:58.149Z,99974.47
2022-09-21T22:54:27.772Z,99978.00
2022-09-21T22:56:55.708Z,99966.25
2022-09-21T22:59:23.635Z,99971.25
2022-09-21T23:01:51.575Z,99972.59
2022-09-21T23:04:21.215Z,99966.38
2022-09-21T23:06:49.652Z,99966.91
2022-09-21T23:09:19.679Z,99964.22
2022-09-21T23:11:52.163Z,99959.19
2022-09-21T23:14:20.100Z,99962.88
2022-09-21T23:16:48.080Z,99958.03
2022-09-21T23:19:16.520Z,99965.44
2022-09-21T23:21:45.277Z,99957.72
2022-09-21T23:24:13.300Z,99954.91
2022-09-21T23:26:41.231Z,99956.91
2022-09-21T23:29:13.656Z,99954.56
2022-09-21T23:31:44.957Z,99950.41
2022-09-21T23:34:13.849Z,99950.38
2022-09-21T23:36:41.937Z,99956.28
2022-09-21T23:39:11.421Z,99954.59
2022-09-21T23:41:39.336Z,99951.59
2022-09-21T23:44:07.436Z,99954.94
2022-09-21T23:46:37.983Z,99960.66
2022-09-21T23:49:06.273Z,99958.34
2022-09-21T23:51:34.275Z,99957.34
2022-09-21T23:54:02.389Z,99953.31
2022-09-21T23:56:30.566Z,99956.34
2022-09-21T23:58:58.941Z,99951.66
